createdAt,value
2023-05-13T00:04:08.000Z,15
2023-05-13T00:09:03.000Z,14.8
2023-05-13T00:13:57.000Z,15.3
2023-05-13T00:18:52.000Z,20
2023-05-13T00:23:45.000Z,18
2023-05-13T00:28:39.000Z,17.6
2023-05-13T00:33:33.000Z,19.9
2023-05-13T00:38:25.000Z,20.8
2023-05-13T00:43:20.000Z,18.7
2023-05-13T00:48:14.000Z,21.1
2023-05-13T00:53:07.000Z,21.1
2023-05-13T00:58:01.000Z,23.8
2023-05-13T01:02:55.000Z,21
2023-05-13T01:07:49.000Z,22.9
2023-05-13T01:12:44.000Z,22.3
2023-05-13T01:17:38.000Z,22.1
2023-05-13T01:22:32.000Z,20.9
2023-05-13T01:27:27.000Z,22.1
2023-05-13T01:32:20.000Z,20.2
2023-05-13T01:37:14.000Z,21.4
2023-05-13T01:42:08.000Z,21.3
2023-05-13T01:47:00.000Z,24.7
2023-05-13T01:51:54.000Z,25.2
2023-05-13T01:56:47.000Z,22.3
2023-05-13T02:01:42.000Z,24.4
2023-05-13T02:06:36.000Z,18.8
2023-05-13T02:11:30.000Z,19.2
2023-05-13T02:16:25.000Z,19.6
2023-05-13T02:21:21.000Z,15.2
2023-05-13T02:26:14.000Z,21.4
2023-05-13T02:31:08.000Z,20.2
2023-05-13T02:36:03.000Z,17.8
2023-05-13T02:40:57.000Z,20
2023-05-13T02:45:50.000Z,15.7
2023-05-13T02:50:44.000Z,17.9
2023-05-13T02:55:38.000Z,17.6
2023-05-13T03:00:32.000Z,39.4
2023-05-13T03:05:26.000Z,59.3
2023-05-13T03:10:20.000Z,60.6
2023-05-13T03:15:15.000Z,84.1
2023-05-13T03:20:09.000Z,74.4
2023-05-13T03:25:03.000Z,103.5
2023-05-13T03:29:57.000Z,105.5
2023-05-13T03:34:51.000Z,84.1
2023-05-13T03:39:45.000Z,70.9
2023-05-13T03:44:39.000Z,60.6
2023-05-13T03:49:33.000Z,50.2
2023-05-13T03:54:28.000Z,46.2
2023-05-13T03:59:22.000Z,44
2023-05-13T04:04:17.000Z,39.1
2023-05-13T04:09:10.000Z,42.9
2023-05-13T04:14:04.000Z,44.3
2023-05-13T04:18:56.000Z,46
2023-05-13T04:23:51.000Z,46.3
2023-05-13T04:28:45.000Z,40.2
2023-05-13T04:33:39.000Z,39.9
2023-05-13T04:38:33.000Z,33.4
2023-05-13T04:43:28.000Z,33.8
2023-05-13T04:48:22.000Z,28.3
2023-05-13T04:53:17.000Z,29.9
2023-05-13T04:58:11.000Z,25.4
2023-05-13T05:03:06.000Z,20.9
2023-05-13T05:08:00.000Z,15.8
2023-05-13T05:12:55.000Z,17.1
2023-05-13T05:17:48.000Z,13.4
2023-05-13T05:22:42.000Z,13.4
2023-05-13T05:27:37.000Z,12.1
2023-05-13T05:32:31.000Z,13.7
2023-05-13T05:37:26.000Z,12.7
2023-05-13T05:42:21.000Z,14.1
2023-05-13T05:47:15.000Z,12
2023-05-13T05:52:09.000Z,11.3
2023-05-13T05:57:03.000Z,13.7
2023-05-13T06:01:57.000Z,11
2023-05-13T06:06:51.000Z,17.2
2023-05-13T06:11:46.000Z,11.4
2023-05-13T06:16:40.000Z,12.4
2023-05-13T06:21:33.000Z,13.3
2023-05-13T06:26:28.000Z,9.4
2023-05-13T06:31:22.000Z,12.6
2023-05-13T06:36:17.000Z,10.3
2023-05-13T06:41:12.000Z,10.5
2023-05-13T06:46:06.000Z,10.7
2023-05-13T06:51:00.000Z,9.2
2023-05-13T06:55:55.000Z,8.8
2023-05-13T07:00:50.000Z,8.5
2023-05-13T07:05:44.000Z,7.8
2023-05-13T07:10:38.000Z,7.1
2023-05-13T07:15:33.000Z,9.2
2023-05-13T07:20:27.000Z,9.9
2023-05-13T07:25:22.000Z,11.5
2023-05-13T07:30:16.000Z,14.3
2023-05-13T07:35:09.000Z,12.7
2023-05-13T07:40:04.000Z,14.6
2023-05-13T07:44:58.000Z,12.9
2023-05-13T07:49:53.000Z,13.8
2023-05-13T07:54:47.000Z,13.8
2023-05-13T07:59:41.000Z,11.8
2023-05-13T08:04:35.000Z,13.3
2023-05-13T08:09:30.000Z,13.2
2023-05-13T08:14:24.000Z,10.4
2023-05-13T08:19:19.000Z,12.4
2023-05-13T08:24:13.000Z,10.4
2023-05-13T08:29:06.000Z,9.4
2023-05-13T08:34:00.000Z,9.2
2023-05-13T08:38:55.000Z,10.4
2023-05-13T08:43:49.000Z,12.2
2023-05-13T08:48:45.000Z,10.6
2023-05-13T08:53:38.000Z,10.8
2023-05-13T08:58:32.000Z,6.2
2023-05-13T09:03:27.000Z,5.6
2023-05-13T09:08:22.000Z,7
2023-05-13T09:13:16.000Z,8.4
2023-05-13T09:18:10.000Z,7.2
2023-05-13T09:23:05.000Z,7.3
2023-05-13T09:27:59.000Z,5.6
2023-05-13T09:32:54.000Z,6.9
2023-05-13T09:37:48.000Z,7.7
2023-05-13T09:42:43.000Z,7.5
2023-05-13T09:47:38.000Z,5.7
2023-05-13T09:52:34.000Z,8.5
2023-05-13T09:57:29.000Z,5.6
2023-05-13T10:02:26.000Z,4.4
2023-05-13T10:07:22.000Z,3.3
2023-05-13T10:12:17.000Z,3.3
2023-05-13T10:17:12.000Z,4.1
2023-05-13T10:22:04.000Z,4.7
2023-05-13T10:26:58.000Z,5.8
2023-05-13T10:31:51.000Z,3.5
2023-05-13T10:36:45.000Z,4.3
2023-05-13T10:41:40.000Z,5.8
2023-05-13T10:46:34.000Z,3.2
2023-05-13T10:51:28.000Z,2.9
2023-05-13T10:56:22.000Z,4.1
2023-05-13T11:01:14.000Z,3.7
2023-05-13T11:06:08.000Z,3.5
2023-05-13T11:11:03.000Z,4.8
2023-05-13T11:15:57.000Z,4
2023-05-13T11:20:51.000Z,3.9
2023-05-13T11:25:44.000Z,4.3
2023-05-13T11:30:38.000Z,3
2023-05-13T11:35:32.000Z,3.3
2023-05-13T11:40:27.000Z,4.9
2023-05-13T11:45:20.000Z,4.1
2023-05-13T11:50:15.000Z,6.9
2023-05-13T11:55:11.000Z,5.3
2023-05-13T12:00:03.000Z,3.9
2023-05-13T12:05:00.000Z,6
2023-05-13T12:09:54.000Z,4.6
2023-05-13T12:14:50.000Z,5.9
2023-05-13T12:19:44.000Z,4.4
2023-05-13T12:24:37.000Z,3.9
2023-05-13T12:29:30.000Z,5.6
2023-05-13T12:34:23.000Z,5.3
2023-05-13T12:39:14.000Z,3.9
2023-05-13T12:44:10.000Z,4.8
2023-05-13T12:49:02.000Z,3
2023-05-13T12:53:59.000Z,3.1
2023-05-13T12:58:54.000Z,6.2
2023-05-13T13:03:48.000Z,4.8
2023-05-13T13:08:42.000Z,4.4
2023-05-13T13:13:35.000Z,12
2023-05-13T13:18:30.000Z,5.6
2023-05-13T13:23:25.000Z,5.2
2023-05-13T13:28:18.000Z,3.6
2023-05-13T13:33:11.000Z,3.2
2023-05-13T13:38:04.000Z,4.3
2023-05-13T13:42:58.000Z,6.4
2023-05-13T13:47:52.000Z,7.7
2023-05-13T13:52:48.000Z,11.7
2023-05-13T13:57:37.000Z,8.3
2023-05-13T14:02:30.000Z,7.1
2023-05-13T14:07:23.000Z,7.4
2023-05-13T14:12:23.000Z,5.1
2023-05-13T14:21:56.000Z,11.1
2023-05-13T14:26:50.000Z,7.9
2023-05-13T14:31:45.000Z,7.3
2023-05-13T14:36:39.000Z,7
2023-05-13T14:41:34.000Z,6.5
2023-05-13T14:46:29.000Z,5.6
2023-05-13T14:51:23.000Z,8
2023-05-13T14:56:17.000Z,7.7
2023-05-13T15:01:09.000Z,6.9
2023-05-13T15:06:03.000Z,5.8
2023-05-13T15:10:57.000Z,7.1
2023-05-13T15:15:51.000Z,7
2023-05-13T15:20:46.000Z,10.9
2023-05-13T15:25:40.000Z,6.8
2023-05-13T15:30:34.000Z,6.4
2023-05-13T15:35:29.000Z,4.5
2023-05-13T15:40:24.000Z,3.9
2023-05-13T15:45:19.000Z,2.4
2023-05-13T15:50:15.000Z,2.8
2023-05-13T15:55:10.000Z,5
2023-05-13T16:00:05.000Z,3.3
2023-05-13T16:04:59.000Z,3.7
2023-05-13T16:09:54.000Z,2.9
2023-05-13T16:14:49.000Z,6.1
2023-05-13T16:19:44.000Z,4.3
2023-05-13T16:24:39.000Z,2.8
2023-05-13T16:29:33.000Z,3.6
2023-05-13T16:34:27.000Z,2.9
2023-05-13T16:39:20.000Z,4.2
2023-05-13T16:44:14.000Z,5.1
2023-05-13T16:49:07.000Z,4.8
2023-05-13T16:54:01.000Z,3.2
2023-05-13T16:58:54.000Z,4.1
2023-05-13T17:03:45.000Z,4.6
2023-05-13T17:08:39.000Z,5.6
2023-05-13T17:13:31.000Z,2.6
2023-05-13T17:18:24.000Z,4.1
2023-05-13T17:23:17.000Z,4.7
2023-05-13T17:28:08.000Z,5.4
2023-05-13T17:33:02.000Z,3.2
2023-05-13T17:37:55.000Z,4.6
2023-05-13T17:42:50.000Z,3.2
2023-05-13T17:47:43.000Z,3.3
2023-05-13T17:52:37.000Z,3.4
2023-05-13T17:57:29.000Z,3.7
2023-05-13T18:02:22.000Z,7.2
2023-05-13T18:07:15.000Z,5.4
2023-05-13T18:12:08.000Z,4.5
2023-05-13T18:17:01.000Z,4.9
2023-05-13T18:21:56.000Z,4.4
2023-05-13T18:26:49.000Z,8.9
2023-05-13T18:31:42.000Z,7.9
2023-05-13T18:36:36.000Z,4.5
2023-05-13T18:41:30.000Z,8.8
2023-05-13T18:46:24.000Z,6.6
2023-05-13T18:51:17.000Z,7.2
2023-05-13T18:56:13.000Z,8.4
2023-05-13T19:01:05.000Z,6.9
2023-05-13T19:05:59.000Z,7.1
2023-05-13T19:10:52.000Z,9.7
2023-05-13T19:15:45.000Z,8.4
2023-05-13T19:20:37.000Z,8.1
2023-05-13T19:25:31.000Z,7.1
2023-05-13T19:30:25.000Z,7.4
2023-05-13T19:35:20.000Z,8.2
2023-05-13T19:40:13.000Z,8.2
2023-05-13T19:45:07.000Z,9.3
2023-05-13T19:49:59.000Z,8.3
2023-05-13T19:54:53.000Z,8.7
2023-05-13T19:59:47.000Z,80.1
2023-05-13T20:04:40.000Z,10.3
2023-05-13T20:09:35.000Z,12
2023-05-13T20:14:29.000Z,9.6
2023-05-13T20:19:23.000Z,16.3
2023-05-13T20:24:17.000Z,11.3
2023-05-13T20:29:11.000Z,10.9
2023-05-13T20:34:04.000Z,10.5
2023-05-13T20:38:58.000Z,9.1
2023-05-13T20:43:52.000Z,12
2023-05-13T20:48:46.000Z,14
2023-05-13T20:53:39.000Z,10.9
2023-05-13T20:58:34.000Z,14.4
2023-05-13T21:03:28.000Z,17.4
2023-05-13T21:08:22.000Z,14.6
2023-05-13T21:13:18.000Z,18.7
2023-05-13T21:18:10.000Z,22.4
2023-05-13T21:23:04.000Z,19.4
2023-05-13T21:27:58.000Z,20.7
2023-05-13T21:32:52.000Z,19.2
2023-05-13T21:37:46.000Z,19.9
2023-05-13T21:42:40.000Z,18.2
2023-05-13T21:47:34.000Z,19.1
2023-05-13T21:52:28.000Z,16.7
2023-05-13T21:57:22.000Z,17.3
2023-05-13T22:02:17.000Z,14.9
2023-05-13T22:07:11.000Z,15.1
2023-05-13T22:12:05.000Z,15.9
2023-05-13T22:16:59.000Z,18.3
2023-05-13T22:21:53.000Z,17.4
2023-05-13T22:26:48.000Z,17.9
2023-05-13T22:31:42.000Z,20.7
2023-05-13T22:36:36.000Z,21.1
2023-05-13T22:41:30.000Z,25.2
2023-05-13T22:46:23.000Z,29.8
2023-05-13T22:51:17.000Z,29.7
2023-05-13T22:56:11.000Z,31.6
2023-05-13T23:01:05.000Z,31.8
2023-05-13T23:05:58.000Z,31
2023-05-13T23:10:52.000Z,32.5
2023-05-13T23:15:45.000Z,34.5
2023-05-13T23:20:38.000Z,34.3
2023-05-13T23:25:30.000Z,26.8
2023-05-13T23:30:24.000Z,25.7
2023-05-13T23:35:18.000Z,23.1
2023-05-13T23:40:12.000Z,26.5
2023-05-13T23:45:06.000Z,21
2023-05-13T23:50:00.000Z,26
2023-05-13T23:54:55.000Z,27.4
2023-05-13T23:59:47.000Z,26.2
